Time;durP1;ratioP1;P1;durP2;ratioP2;P2;SDS_P1;SDS_P2;PMS_P1;PMS_P2;Temp;Humidity;BMP_temperature;BMP_pressure;BME280_temperature;BME280_humidity;BME280_pressure;Samples;Min_cycle;Max_cycle;Signal;HPM_P1;HPM_P2
2021/11/01 00:01:01;;;;;;;31.33;17.07;;;;;;;10.10;68.97;99787.63;5195183;56;1141179;-78
2021/11/01 00:06:07;;;;;;;31.63;16.17;;;;;;;10.04;68.82;99787.70;5192727;56;1141293;-79
2021/11/01 00:11:13;;;;;;;28.83;16.67;;;;;;;10.01;68.75;99782.68;5195307;56;1141138;-78
2021/11/01 00:16:19;;;;;;;38.45;17.37;;;;;;;9.97;68.87;99782.59;5195133;56;1141454;-79
2021/11/01 00:21:25;;;;;;;31.00;17.20;;;;;;;9.91;69.16;99763.81;5195308;56;1139367;-76
2021/11/01 00:26:31;;;;;;;39.10;19.17;;;;;;;9.86;69.26;99754.95;5195479;56;1139569;-80
2021/11/01 00:31:38;;;;;;;34.70;15.63;;;;;;;9.81;69.76;99748.74;5195342;56;1139191;-82
2021/11/01 00:36:44;;;;;;;29.83;17.63;;;;;;;9.81;69.36;99739.98;5154389;57;1138999;-78
2021/11/01 00:41:50;;;;;;;29.10;16.03;;;;;;;9.81;69.58;99724.14;5110151;57;1139330;-81
2021/11/01 00:46:58;;;;;;;35.20;15.83;;;;;;;9.80;69.75;99714.54;5110162;57;1139061;-80
2021/11/01 00:52:03;;;;;;;34.00;16.57;;;;;;;9.77;69.79;99706.42;5110166;57;1139424;-78
2021/11/01 00:57:09;;;;;;;35.07;18.17;;;;;;;9.73;69.58;99705.50;5103705;56;1139045;-80
2021/11/01 01:02:15;;;;;;;33.27;18.20;;;;;;;9.70;69.63;99692.55;5099841;58;1138994;-78
2021/11/01 01:07:21;;;;;;;33.63;17.00;;;;;;;9.64;69.53;99698.36;5100478;57;1139090;-78
2021/11/01 01:12:27;;;;;;;31.83;16.87;;;;;;;9.67;69.74;99700.73;5100212;57;1139204;-80
2021/11/01 01:17:37;;;;;;;28.17;16.30;;;;;;;9.63;69.63;99686.96;5100381;57;1139023;-77
2021/11/01 01:22:43;;;;;;;32.00;16.83;;;;;;;9.58;69.67;99689.66;5100255;58;1139286;-81
2021/11/01 01:27:50;;;;;;;31.20;16.73;;;;;;;9.51;69.82;99682.27;5100387;57;1139555;-76
2021/11/01 01:32:56;;;;;;;32.13;16.63;;;;;;;9.46;69.95;99679.69;5100568;57;1136971;-81
2021/11/01 01:38:01;;;;;;;25.50;14.20;;;;;;;9.42;70.25;99665.08;5163522;57;1139403;-77
2021/11/01 01:43:08;;;;;;;27.53;15.23;;;;;;;9.42;70.27;99652.72;5145003;57;1139052;-79
2021/11/01 01:48:14;;;;;;;36.38;17.90;;;;;;;9.44;70.34;99644.19;5185757;57;1139074;-76
2021/11/01 01:53:23;;;;;;;29.67;16.87;;;;;;;9.36;70.72;99629.49;5185379;57;1139379;-79
2021/11/01 01:58:35;;;;;;;28.57;16.37;;;;;;;9.36;70.72;99629.49;5185347;56;1137327;-78
2021/11/01 02:03:45;;;;;;;;;;;;;;;9.27;71.06;99626.34;5183462;57;1136919;-78
2021/11/01 02:09:05;;;;;;;30.13;17.00;;;;;;;9.19;71.41;99614.28;5188094;57;970045;-79
2021/11/01 02:14:13;;;;;;;29.00;15.37;;;;;;;9.10;71.40;99608.00;5183700;57;1133122;-77
2021/11/01 02:19:23;;;;;;;32.40;16.47;;;;;;;9.09;71.56;99614.24;5182663;57;1135315;-78
2021/11/01 02:24:43;;;;;;;29.17;13.70;;;;;;;9.08;71.71;99620.97;5212406;56;1137223;-78
2021/11/01 02:29:49;;;;;;;25.90;15.20;;;;;;;9.14;71.37;99612.54;5216731;56;1137046;-79
2021/11/01 02:34:56;;;;;;;31.57;16.77;;;;;;;9.18;71.24;99611.28;5207808;56;1137066;-79
2021/11/01 02:40:02;;;;;;;26.67;15.27;;;;;;;9.22;71.21;99602.63;5132670;57;1136405;-77
2021/11/01 02:45:12;;;;;;;26.80;16.13;;;;;;;9.20;71.33;99596.16;5132539;57;1134804;-82
2021/11/01 02:50:21;;;;;;;25.07;15.00;;;;;;;9.08;71.29;99594.59;5141417;57;1139243;-79
2021/11/01 02:55:27;;;;;;;35.70;16.60;;;;;;;8.99;71.52;99594.91;5141375;57;1139301;-79
2021/11/01 03:00:34;;;;;;;31.13;14.43;;;;;;;8.92;71.79;99583.20;5149276;56;1136842;-77
2021/11/01 03:05:44;;;;;;;25.50;14.80;;;;;;;8.89;71.71;99585.26;5150184;57;1138964;-80
2021/11/01 03:10:52;;;;;;;28.80;14.97;;;;;;;8.88;72.02;99578.31;5150254;57;1139241;-78
2021/11/01 03:16:00;;;;;;;27.90;15.70;;;;;;;8.81;72.08;99574.06;5150058;57;1138994;-80
2021/11/01 03:21:07;;;;;;;24.87;15.07;;;;;;;8.71;72.51;99566.08;5150040;57;1139238;-78
2021/11/01 03:26:17;;;;;;;24.33;15.13;;;;;;;8.62;72.76;99560.28;5150034;57;1139524;-80
2021/11/01 03:31:26;;;;;;;24.53;14.90;;;;;;;8.54;72.98;99557.95;5150176;57;1136934;-79
2021/11/01 03:36:33;;;;;;;25.97;13.50;;;;;;;8.50;72.94;99550.78;5187985;56;1139289;-78
2021/11/01 03:41:41;;;;;;;25.60;15.10;;;;;;;8.48;73.44;99553.20;5236322;56;1139247;-79
2021/11/01 03:46:57;;;;;;;24.90;15.27;;;;;;;8.43;73.51;99540.40;5236560;56;1139016;-78
2021/11/01 03:57:11;;;;;;;33.20;16.27;;;;;;;8.31;74.00;99540.92;5236388;55;1137183;-80
2021/11/01 04:02:21;;;;;;;24.40;14.87;;;;;;;8.29;73.65;99546.80;5236351;56;1137238;-79
2021/11/01 04:07:27;;;;;;;27.77;14.60;;;;;;;8.26;73.73;99542.25;5236356;56;1139782;-82
2021/11/01 04:12:33;;;;;;;35.40;16.23;;;;;;;8.24;73.69;99529.73;5236339;56;1139217;-78
2021/11/01 04:22:55;;;;;;;33.67;17.63;;;;;;;8.26;73.82;99525.13;5236204;56;1139000;-76
2021/11/01 04:28:00;;;;;;;25.87;16.57;;;;;;;8.22;73.84;99534.28;5236164;56;1139113;-80
2021/11/01 04:33:10;;;;;;;27.27;16.20;;;;;;;8.13;74.29;99526.64;5236300;56;1137005;-80
2021/11/01 04:38:28;;;;;;;27.47;15.13;;;;;;;8.06;74.53;99519.75;5168201;56;1137259;-78
2021/11/01 04:44:03;;;;;;;30.30;16.93;;;;;;;8.01;74.77;99514.51;5052400;58;1139213;-77
2021/11/01 04:54:10;;;;;;;25.45;15.80;;;;;;;7.91;75.17;99503.91;5201658;56;1136836;-81
2021/11/01 04:59:16;;;;;;;30.23;15.43;;;;;;;7.86;75.75;99492.92;5172081;56;1134863;-80
2021/11/01 05:04:26;;;;;;;30.97;16.20;;;;;;;7.80;76.18;99485.99;5165740;55;1136837;-78
2021/11/01 05:09:42;;;;;;;26.17;15.73;;;;;;;7.80;76.21;99482.05;5188298;56;1137265;-77
2021/11/01 05:25:28;;;;;;;32.17;17.30;;;;;;;7.82;77.23;99477.49;5135218;57;1135042;-81
2021/11/01 05:30:40;;;;;;;29.30;14.60;;;;;;;7.76;76.74;99474.43;5141345;56;1134828;-78
2021/11/01 05:35:44;;;;;;;26.23;14.67;;;;;;;7.74;76.76;99482.92;5166077;56;1134864;-80
2021/11/01 05:40:50;;;;;;;25.97;16.67;;;;;;;7.75;76.75;99490.34;5248036;56;21096;-81
2021/11/01 05:45:56;;;;;;;29.33;16.30;;;;;;;7.75;77.27;99485.08;5228535;56;1134872;-80
2021/11/01 05:51:02;;;;;;;28.10;15.38;;;;;;;7.68;76.95;99478.16;5228380;56;1137008;-77
2021/11/01 06:17:34;;;;;;;32.60;13.45;;;;;;;7.67;78.03;99483.54;5141861;56;1136907;-80
2021/11/01 06:22:43;;;;;;;21.97;13.50;;;;;;;7.67;77.88;99482.23;5141632;56;1139020;-80
2021/11/01 06:27:53;;;;;;;28.40;15.53;;;;;;;7.73;78.11;99483.05;5141542;56;1139142;-77
2021/11/01 06:43:28;;;;;;;23.98;14.35;;;;;;;7.95;78.56;99492.14;5227849;55;1136889;-80
2021/11/01 07:15:26;;;;;;;19.90;12.83;;;;;;;9.17;78.43;99499.65;5185086;56;1136927;-80
2021/11/01 08:45:54;;;;;;;15.93;11.83;;;;;;;12.63;69.44;99491.74;5187548;56;1137150;-80
2021/11/01 09:01:40;;;;;;;14.37;9.83;;;;;;;12.78;70.17;99490.17;5230598;56;970092;-79
2021/11/01 09:27:51;;;;;;;14.27;10.27;;;;;;;13.11;69.25;99498.28;5244241;55;1141023;-78
2021/11/01 09:38:29;;;;;;;17.02;11.05;;;;;;;13.24;68.99;99500.02;5269523;55;1141256;-78
2021/11/01 09:43:25;;;;;;;21.67;12.87;;;;;;;13.47;69.25;99499.73;5296391;55;1141231;-78
2021/11/01 09:48:32;;;;;;;19.13;13.60;;;;;;;13.69;68.44;99500.95;5298813;56;1141173;-79
2021/11/01 09:53:40;;;;;;;16.47;11.90;;;;;;;13.79;68.02;99492.33;5249152;56;1141041;-82
2021/11/01 10:04:24;;;;;;;16.17;12.67;;;;;;;13.86;67.91;99492.02;5286906;56;1141009;-79
2021/11/01 10:09:31;;;;;;;19.50;12.43;;;;;;;13.89;67.37;99494.34;5209955;56;1141030;-83
2021/11/01 10:14:57;;;;;;;19.03;10.97;;;;;;;13.94;67.40;99493.33;5240555;56;1141107;-86
2021/11/01 10:20:13;;;;;;;13.17;10.93;;;;;;;14.01;68.05;99500.99;4964997;59;1141090;-84
2021/11/01 10:25:22;;;;;;;20.47;12.70;;;;;;;14.13;67.39;99486.86;4962966;58;1139032;-87
2021/11/01 10:30:33;;;;;;;34.50;18.77;;;;;;;14.18;66.65;99494.34;4960914;59;1139084;-87
2021/11/01 10:35:43;;;;;;;21.70;13.90;;;;;;;14.19;67.02;99490.69;4983512;58;1139027;-85
2021/11/01 10:56:41;;;;;;;20.33;14.17;;;;;;;14.62;66.82;99490.33;5044997;58;1138947;-87
2021/11/01 11:13:12;;;;;;;15.03;10.90;;;;;;;15.23;64.88;99483.45;5210461;56;1141135;-83
2021/11/01 11:40:18;;;;;;;30.70;19.30;;;;;;;16.11;63.43;99491.89;5255504;55;1140978;-85
2021/11/01 11:50:40;;;;;;;19.93;14.00;;;;;;;16.42;62.71;99477.60;5280603;55;1139090;-84
2021/11/01 11:56:00;;;;;;;25.57;15.50;;;;;;;16.54;62.19;99476.97;5239874;56;1138967;-84
2021/11/01 12:01:30;;;;;;;21.00;14.87;;;;;;;16.62;62.32;99486.75;5210124;56;1139225;-87
2021/11/01 12:06:57;;;;;;;18.03;12.90;;;;;;;16.77;62.49;99491.63;5058042;58;1139072;-85
2021/11/01 12:17:24;;;;;;;17.77;13.43;;;;;;;17.08;60.26;99490.59;5058326;58;1141361;-85
2021/11/01 12:22:35;;;;;;;18.57;13.27;;;;;;;17.19;61.23;99485.61;5058788;57;1140916;-84
2021/11/01 12:27:49;;;;;;;21.40;13.40;;;;;;;17.27;59.51;99491.84;5078413;57;1141209;-84
2021/11/01 12:32:57;;;;;;;23.30;13.90;;;;;;;17.35;60.69;99495.25;5126024;57;1141151;-85
2021/11/01 12:38:11;;;;;;;18.60;14.37;;;;;;;17.18;60.10;99489.29;5091364;57;1141165;-84
2021/11/01 12:59:11;;;;;;;18.40;12.90;;;;;;;16.79;61.64;99491.44;5211295;56;1141024;-84
2021/11/01 13:04:31;;;;;;;20.90;14.90;;;;;;;16.52;61.72;99497.67;5258806;55;1141295;-85
2021/11/01 13:09:32;;;;;;;22.23;16.13;;;;;;;16.40;62.43;99495.63;5294843;55;1141012;-83
2021/11/01 13:14:56;;;;;;;24.83;15.83;;;;;;;16.30;62.68;99505.74;5166493;56;1140981;-84
2021/11/01 13:19:53;;;;;;;32.73;19.47;;;;;;;16.17;62.84;99501.02;5094749;57;1141486;-83
2021/11/01 13:36:30;;;;;;;21.90;13.90;;;;;;;15.98;63.82;99498.33;5214243;55;1141033;-83
2021/11/01 13:40:52;;;;;;;24.17;15.83;;;;;;;15.89;64.30;99506.58;5108843;57;1139005;-81
2021/11/01 13:46:00;;;;;;;20.62;15.45;;;;;;;15.78;64.69;99502.47;5132420;57;1139124;-89
2021/11/01 13:51:11;;;;;;;31.00;22.33;;;;;;;15.71;64.94;99501.03;5132317;57;1139145;-84
2021/11/01 13:56:33;;;;;;;99.13;68.63;;;;;;;15.64;65.24;99492.56;5131197;57;1139472;-84
2021/11/01 14:18:04;;;;;;;26.17;16.73;;;;;;;15.45;66.01;99505.30;5193722;57;970127;-85
2021/11/01 15:21:39;;;;;;;82.03;53.63;;;;;;;15.42;67.66;99502.18;4941615;59;1139178;-82
2021/11/01 15:32:30;;;;;;;55.07;34.63;;;;;;;15.27;67.91;99502.09;4660375;63;1141144;-81
2021/11/01 16:15:29;;;;;;;43.37;26.20;;;;;;;15.22;68.74;99503.59;4811499;61;1137044;-82
2021/11/01 16:20:10;;;;;;;75.97;36.17;;;;;;;15.15;70.12;99503.45;4884309;59;1141109;-81
2021/11/01 16:25:16;;;;;;;53.90;33.40;;;;;;;15.15;70.49;99506.11;4884241;59;1141102;-80
2021/11/01 16:30:23;;;;;;;57.13;33.50;;;;;;;15.13;70.50;99504.12;5051603;58;1141133;-81
2021/11/01 16:35:36;;;;;;;60.40;32.83;;;;;;;15.10;70.47;99503.16;4993381;58;1141068;-80
2021/11/01 16:40:43;;;;;;;61.07;34.43;;;;;;;15.07;70.54;99505.66;4919634;59;1141152;-82
2021/11/01 16:45:52;;;;;;;69.27;34.80;;;;;;;15.03;70.75;99497.67;4882428;60;1141116;-81
2021/11/01 16:50:57;;;;;;;218.83;74.63;;;;;;;14.94;70.81;99503.22;4924053;59;1141200;-85
2021/11/01 16:56:26;;;;;;;159.30;57.67;;;;;;;14.68;70.75;99502.10;4956403;57;1143165;-85
2021/11/01 17:01:17;;;;;;;127.80;51.20;;;;;;;14.58;71.20;99493.48;4930187;58;1143128;-88
2021/11/01 17:07:09;;;;;;;86.67;40.23;;;;;;;14.65;71.82;99495.81;4930416;58;1143049;-81
2021/11/01 17:22:24;;;;;;;92.07;43.70;;;;;;;14.68;72.61;99494.95;4965368;58;1139026;-85
2021/11/01 17:27:47;;;;;;;81.30;40.73;;;;;;;14.65;72.28;99494.48;4978237;58;1138259;-84
2021/11/01 18:54:17;;;;;;;164.43;80.33;;;;;;;14.18;75.17;99491.69;5086226;57;1143136;-85
2021/11/01 18:59:23;;;;;;;150.20;69.10;;;;;;;14.12;75.50;99490.52;5059161;58;1143071;-82
2021/11/01 19:04:36;;;;;;;121.03;56.07;;;;;;;13.92;75.19;99491.83;5045857;58;1143087;-78
2021/11/01 21:25:08;;;;;;;56.70;32.50;;;;;;;12.61;79.55;99491.89;5104159;57;1141039;-87
2021/11/01 21:30:12;;;;;;;60.30;35.70;;;;;;;12.65;79.64;99497.23;5032367;58;1141210;-80
2021/11/01 21:35:19;;;;;;;66.67;37.60;;;;;;;12.65;79.57;99496.41;5098012;57;1141091;-83
2021/11/01 21:40:25;;;;;;;46.03;27.53;;;;;;;12.61;79.77;99493.22;5033369;58;1141012;-88
2021/11/01 21:45:32;;;;;;;50.67;27.03;;;;;;;12.54;79.73;99492.66;5121535;57;1140872;-81
2021/11/01 21:50:38;;;;;;;39.90;25.87;;;;;;;12.49;79.74;99480.39;5121350;57;1141085;-86
2021/11/01 21:55:45;;;;;;;51.13;26.83;;;;;;;12.38;79.85;99477.97;5128702;57;1141214;-86
2021/11/01 22:01:08;;;;;;;56.90;29.33;;;;;;;12.34;80.31;99462.89;5018607;58;1141014;-85
2021/11/01 22:16:52;;;;;;;35.03;22.70;;;;;;;12.41;80.33;99435.23;5142968;57;1141019;-85
2021/11/01 22:59:00;;;;;;;52.10;27.73;;;;;;;11.79;78.66;99384.98;5070364;58;1138994;-81
2021/11/01 23:04:24;;;;;;;54.70;30.13;;;;;;;11.77;78.67;99393.56;5070676;57;1138900;-85
2021/11/01 23:36:17;;;;;;;50.43;27.27;;;;;;;11.40;78.22;99369.08;5100593;56;1141315;-80
2021/11/01 23:41:22;;;;;;;56.87;30.30;;;;;;;11.32;78.07;99369.82;5155001;56;1141056;-83
2021/11/01 23:46:29;;;;;;;51.77;30.03;;;;;;;11.27;78.54;99362.36;5155007;57;1141103;-81
2021/11/01 23:51:38;;;;;;;52.60;31.77;;;;;;;11.23;78.41;99368.93;5153965;57;1141228;-83
2021/11/01 23:56:44;;;;;;;56.33;33.07;;;;;;;11.12;78.08;99366.52;5196727;56;1141054;-82
